King, California
Current Conditions -  °F | °C
As of 11:53 PM on Wednesday 26 Nov 2014 (Local Time) from KSNA Reporting Station
Clear Clear  
Wind Chill: 60°   Ceiling: Unl
Heat Index: 60°   Visibility: 10mi
Dew Point: 42°   Wind: 0mph
Humidity: 51%   Direction: NA
Pressure: 30.11"   Gusts: NA
Location:  33.7663°N, 117.878°W
Report Text: KSNA 270753Z 00000KT 10SM CLR 16/06 A3011 RMK AO2 SLP193 T01560056 402890111
Loading
Personal Weather Stations






























Interactive Weather Map New forecast layout! Learn more

10-Day Weather Forecast

Advertisements
Track Severe Weather on mobile